createdAt,value
2023-11-05T00:01:23.552Z,24.6808
2023-11-05T00:16:25.322Z,25.844
2023-11-05T00:31:27.048Z,25.285
2023-11-05T00:46:28.761Z,25.6979
2023-11-05T01:01:30.546Z,26.13
2023-11-05T01:16:32.322Z,25.5159
2023-11-05T01:31:34.021Z,24.8727
2023-11-05T01:46:35.759Z,25.3828
2023-11-05T02:01:37.568Z,25.181
2023-11-05T02:16:39.305Z,25.1841
2023-11-05T02:31:41.006Z,25.545
2023-11-05T02:46:42.686Z,26.3479
2023-11-05T03:01:44.508Z,25.8539
2023-11-05T03:16:46.272Z,25.909
2023-11-05T03:31:48.041Z,25.4769
2023-11-05T03:46:49.732Z,25.0968
2023-11-05T04:01:51.420Z,25.8601
2023-11-05T04:16:53.111Z,26.0427
2023-11-05T04:31:54.800Z,25.8019
2023-11-05T04:46:56.482Z,25.4088
2023-11-05T05:01:58.217Z,25.402
2023-11-05T05:16:59.990Z,25.2751
2023-11-05T05:32:01.773Z,24.999
2023-11-05T05:47:03.460Z,25.1519
2023-11-05T06:02:05.239Z,25.285
2023-11-05T06:17:06.988Z,24.2679
2023-11-05T06:32:08.683Z,25.4181
2023-11-05T06:47:10.481Z,25.2231
2023-11-05T07:02:12.221Z,24.401
2023-11-05T07:17:14.008Z,24.1509
2023-11-05T07:32:16.221Z,24.8523
2023-11-05T07:47:18.272Z,24.5991
2023-11-05T08:02:19.986Z,24.4821
2023-11-05T08:17:21.781Z,25.0281
2023-11-05T08:32:23.468Z,25.4113
2023-11-05T08:47:25.151Z,24.804
2023-11-05T09:02:26.901Z,24.635
2023-11-05T09:17:28.677Z,25.1123
2023-11-05T09:32:30.491Z,24.726
2023-11-05T09:47:32.234Z,24.4982
2023-11-05T10:02:34.246Z,24.0661
2023-11-05T10:17:36.199Z,24.3063
2023-11-05T10:32:38.009Z,24.0172
2023-11-05T10:47:39.980Z,23.8154
2023-11-05T11:02:51.127Z,23.7894
2023-11-05T11:17:57.110Z,23.2112
2023-11-05T11:32:59.012Z,22.9933
2023-11-05T11:48:01.113Z,23.2824
2023-11-05T12:03:03.138Z,23.1134
2023-11-05T12:18:04.945Z,22.8373
2023-11-05T12:33:06.861Z,22.6262
2023-11-05T12:48:09.127Z,22.4343
2023-11-05T13:03:11.591Z,22.3464
2023-11-05T13:18:13.601Z,22.4244
2023-11-05T13:33:17.237Z,22.2876
2023-11-05T13:48:19.118Z,22.4306
2023-11-05T14:03:22.954Z,21.9824
2023-11-05T14:18:25.051Z,22.1186
2023-11-05T14:33:28.326Z,22.0146
2023-11-05T14:48:31.016Z,21.6766
2023-11-05T15:03:32.750Z,21.1473
2023-11-05T15:18:37.205Z,22.0827
2023-11-05T15:33:40.957Z,21.3974
2023-11-05T15:48:42.822Z,22.9382
2023-11-05T16:03:45.026Z,24.5861
2023-11-05T16:18:48.302Z,24.3069
2023-11-05T16:33:50.636Z,23.2669
2023-11-05T16:48:52.440Z,23.192
2023-11-05T17:04:00.982Z,24.3199
2023-11-05T17:19:06.164Z,23.9782
2023-11-05T17:34:08.355Z,23.3771
2023-11-05T17:49:10.170Z,23.4223
2023-11-05T18:04:12.788Z,23.504
2023-11-05T18:19:14.887Z,24.3713
2023-11-05T18:34:16.581Z,23.5102
2023-11-05T18:49:18.361Z,24.2964
2023-11-05T19:04:20.069Z,24.1404
2023-11-05T19:19:21.845Z,24.44
2023-11-05T19:34:23.534Z,25.7988
2023-11-05T19:49:25.431Z,25.714
2023-11-05T20:04:27.268Z,25.2887
2023-11-05T20:19:29.281Z,25.8019
2023-11-05T20:34:30.968Z,25.7208
2023-11-05T20:49:32.859Z,25.5846
2023-11-05T21:04:37.326Z,25.8477
2023-11-05T21:19:39.055Z,25.4286
2023-11-05T21:34:40.783Z,25.4416
2023-11-05T21:49:42.465Z,25.4577
2023-11-05T22:04:44.271Z,25.4416
2023-11-05T22:19:46.072Z,25.9647
2023-11-05T22:34:47.840Z,25.9876
2023-11-05T22:49:49.637Z,26.3355
2023-11-05T23:04:51.365Z,26.6376
2023-11-05T23:19:53.027Z,26.2284
2023-11-05T23:34:54.880Z,26.4265
2023-11-05T23:49:56.546Z,26.6444
